createdAt,value
2019-03-21T00:02:12.031Z,28.07
2019-03-21T00:04:41.849Z,27.93
2019-03-21T00:07:10.739Z,34.38
2019-03-21T00:09:39.623Z,33.07
2019-03-21T00:12:09.246Z,32.30
2019-03-21T00:14:54.701Z,31.30
2019-03-21T00:17:27.897Z,33.90
2019-03-21T00:19:56.601Z,31.95
2019-03-21T00:22:25.163Z,38.78
2019-03-21T00:24:54.273Z,31.87
2019-03-21T00:27:22.960Z,32.07
2019-03-21T00:29:51.832Z,32.40
2019-03-21T00:32:20.944Z,37.28
2019-03-21T00:34:49.728Z,38.60
2019-03-21T00:37:18.295Z,31.40
2019-03-21T00:39:46.874Z,28.57
2019-03-21T00:42:18.526Z,34.17
2019-03-21T00:44:47.443Z,31.37
2019-03-21T00:47:18.117Z,30.15
2019-03-21T00:49:46.953Z,31.67
2019-03-21T00:52:16.441Z,33.05
2019-03-21T00:54:45.642Z,25.00
2019-03-21T00:57:14.340Z,25.97
2019-03-21T00:59:43.218Z,28.45
2019-03-21T01:02:12.098Z,25.25
2019-03-21T01:04:40.982Z,24.77
2019-03-21T01:07:10.001Z,29.52
2019-03-21T01:09:38.873Z,27.43
2019-03-21T01:12:08.062Z,26.68
2019-03-21T01:14:37.164Z,29.07
2019-03-21T01:17:05.843Z,28.17
2019-03-21T01:19:34.734Z,29.83
2019-03-21T01:22:03.624Z,30.07
2019-03-21T01:24:32.202Z,27.82
2019-03-21T01:27:01.094Z,23.57
2019-03-21T01:29:30.295Z,24.70
2019-03-21T01:31:59.446Z,21.20
2019-03-21T01:34:28.273Z,20.08
2019-03-21T01:36:56.855Z,18.90
2019-03-21T01:39:25.436Z,16.73
2019-03-21T01:41:54.524Z,24.02
2019-03-21T01:44:23.774Z,20.63
2019-03-21T01:46:53.080Z,20.57
2019-03-21T01:49:22.010Z,19.37
2019-03-21T01:51:51.618Z,22.22
2019-03-21T01:54:20.721Z,20.75
2019-03-21T01:56:49.611Z,18.93
2019-03-21T01:59:18.497Z,17.85
2019-03-21T02:01:47.690Z,18.37
2019-03-21T02:04:16.678Z,20.70
2019-03-21T02:06:45.272Z,19.52
2019-03-21T02:09:14.172Z,17.32
2019-03-21T02:11:44.702Z,21.27
2019-03-21T02:14:13.367Z,21.57
2019-03-21T02:16:42.786Z,25.50
2019-03-21T02:19:11.562Z,21.80
2019-03-21T02:21:40.131Z,24.12
2019-03-21T02:24:09.017Z,24.77
2019-03-21T02:26:37.730Z,28.02
2019-03-21T02:29:06.395Z,21.23
2019-03-21T02:31:35.395Z,21.48
2019-03-21T02:34:05.603Z,22.93
2019-03-21T02:36:34.177Z,23.60
2019-03-21T02:39:04.508Z,18.70
2019-03-21T02:41:34.628Z,20.25
2019-03-21T02:44:03.725Z,22.65
2019-03-21T02:46:32.308Z,21.62
2019-03-21T02:49:01.928Z,19.45
2019-03-21T02:51:30.494Z,22.02
2019-03-21T02:53:59.073Z,18.23
2019-03-21T02:56:27.671Z,17.30
2019-03-21T02:58:56.348Z,15.65
2019-03-21T03:01:25.226Z,17.43
2019-03-21T03:03:53.822Z,14.03
2019-03-21T03:06:23.211Z,16.07
2019-03-21T03:08:52.096Z,15.83
2019-03-21T03:11:21.604Z,16.20
2019-03-21T03:13:51.215Z,15.53
2019-03-21T03:16:21.836Z,14.87
2019-03-21T03:18:50.427Z,15.58
2019-03-21T03:21:19.215Z,15.30
2019-03-21T03:23:48.015Z,13.90
2019-03-21T03:26:17.286Z,13.85
2019-03-21T03:28:46.904Z,13.78
2019-03-21T03:31:17.264Z,15.23
2019-03-21T03:33:45.804Z,13.80
2019-03-21T03:36:17.681Z,14.47
2019-03-21T03:38:46.248Z,14.10
2019-03-21T03:41:16.667Z,15.50
2019-03-21T03:43:45.560Z,14.28
2019-03-21T03:46:15.082Z,13.45
2019-03-21T03:48:44.175Z,19.30
2019-03-21T03:51:13.252Z,14.55
2019-03-21T03:53:42.653Z,16.57
2019-03-21T03:56:11.846Z,13.05
2019-03-21T03:58:41.859Z,14.45
2019-03-21T04:01:10.455Z,13.33
2019-03-21T04:03:39.022Z,15.13
2019-03-21T04:06:08.237Z,12.98
2019-03-21T04:08:37.427Z,14.90
2019-03-21T04:11:06.738Z,13.13
2019-03-21T04:13:35.608Z,13.27
2019-03-21T04:16:05.621Z,13.63
2019-03-21T04:18:34.213Z,12.50
2019-03-21T04:21:12.204Z,13.10
2019-03-21T04:23:40.796Z,12.85
2019-03-21T04:26:17.164Z,17.42
2019-03-21T04:28:46.060Z,13.00
2019-03-21T04:31:14.737Z,16.53
2019-03-21T04:33:44.546Z,14.38
2019-03-21T04:36:13.426Z,13.83
2019-03-21T04:38:42.113Z,13.70
2019-03-21T04:41:10.999Z,15.45
2019-03-21T04:43:40.915Z,14.78
2019-03-21T04:46:10.112Z,17.00
2019-03-21T04:48:38.813Z,14.93
2019-03-21T04:51:07.690Z,12.00
2019-03-21T04:53:36.267Z,13.48
2019-03-21T04:56:05.777Z,12.45
2019-03-21T04:58:34.346Z,14.95
2019-03-21T05:01:03.156Z,13.25
2019-03-21T05:03:32.642Z,13.93
2019-03-21T05:06:01.334Z,17.37
2019-03-21T05:08:30.519Z,12.97
2019-03-21T05:10:59.123Z,15.30
2019-03-21T05:13:27.795Z,14.33
2019-03-21T05:15:56.376Z,15.50
2019-03-21T05:18:26.862Z,17.20
2019-03-21T05:20:55.376Z,15.93
2019-03-21T05:23:24.818Z,12.90
2019-03-21T05:25:54.096Z,15.58
2019-03-21T05:28:22.654Z,14.23
2019-03-21T05:30:52.775Z,14.87
2019-03-21T05:33:21.663Z,16.90
2019-03-21T05:35:50.246Z,14.83
2019-03-21T05:38:20.263Z,15.23
2019-03-21T05:40:49.349Z,12.60
2019-03-21T05:43:19.541Z,16.87
2019-03-21T05:45:48.790Z,15.30
2019-03-21T05:48:17.868Z,13.13
2019-03-21T05:50:46.576Z,13.35
2019-03-21T05:53:15.644Z,14.38
2019-03-21T05:55:44.843Z,12.78
2019-03-21T05:58:13.423Z,15.93
2019-03-21T06:00:43.744Z,14.63
2019-03-21T06:03:13.764Z,14.03
2019-03-21T06:05:44.184Z,14.23
2019-03-21T06:08:15.404Z,16.65
2019-03-21T06:10:44.867Z,16.70
2019-03-21T06:13:13.519Z,12.90
2019-03-21T06:15:42.426Z,15.18
2019-03-21T06:18:27.979Z,15.30
2019-03-21T06:21:14.821Z,18.07
2019-03-21T06:24:00.483Z,17.55
2019-03-21T06:26:42.995Z,16.00
2019-03-21T06:29:11.874Z,14.18
2019-03-21T06:31:41.066Z,13.83
2019-03-21T06:34:10.274Z,16.40
2019-03-21T06:36:38.854Z,15.40
2019-03-21T06:39:09.298Z,16.35
2019-03-21T06:41:38.162Z,18.67
2019-03-21T06:44:06.764Z,14.78
2019-03-21T06:46:35.654Z,15.63
2019-03-21T06:49:05.752Z,16.33
2019-03-21T06:51:34.846Z,17.75
2019-03-21T06:54:03.657Z,19.25
2019-03-21T06:56:32.936Z,14.60
2019-03-21T06:59:01.935Z,16.60
2019-03-21T07:01:30.507Z,20.52
2019-03-21T07:04:06.924Z,15.00
2019-03-21T07:06:29.824Z,14.03
2019-03-21T07:08:58.403Z,13.83
2019-03-21T07:11:27.002Z,12.05
2019-03-21T07:13:56.304Z,15.15
2019-03-21T07:16:24.963Z,15.63
2019-03-21T07:18:53.557Z,12.37
2019-03-21T07:21:22.438Z,15.55
2019-03-21T07:23:51.838Z,18.12
2019-03-21T07:26:20.825Z,12.85
2019-03-21T07:28:49.720Z,13.47
2019-03-21T07:31:18.502Z,14.40
2019-03-21T07:33:47.398Z,11.23
2019-03-21T07:36:18.634Z,13.97
2019-03-21T07:38:47.225Z,15.35
2019-03-21T07:41:16.216Z,13.08
2019-03-21T07:43:45.302Z,13.68
2019-03-21T07:46:14.524Z,17.05
2019-03-21T07:48:43.904Z,14.68
2019-03-21T07:51:12.482Z,11.00
2019-03-21T07:53:41.375Z,13.70
2019-03-21T07:56:10.468Z,12.05
2019-03-21T07:58:39.046Z,11.00
2019-03-21T08:01:07.637Z,11.00
2019-03-21T08:03:36.217Z,14.15
2019-03-21T08:06:05.823Z,14.40
2019-03-21T08:08:35.026Z,11.60
2019-03-21T08:11:03.608Z,12.35
2019-03-21T08:13:32.486Z,13.30
2019-03-21T08:16:01.692Z,15.55
2019-03-21T08:18:30.287Z,13.08
2019-03-21T08:21:00.107Z,13.35
2019-03-21T08:23:29.091Z,14.98
2019-03-21T08:25:57.775Z,12.50
2019-03-21T08:28:26.748Z,15.40
2019-03-21T08:30:57.386Z,15.80
2019-03-21T08:33:26.062Z,13.98
2019-03-21T08:35:54.950Z,17.20
2019-03-21T08:38:23.735Z,20.80
2019-03-21T08:40:52.315Z,13.18
2019-03-21T08:43:21.207Z,15.30
2019-03-21T08:45:50.100Z,17.27
2019-03-21T08:48:18.802Z,14.03
2019-03-21T08:50:47.671Z,15.83
2019-03-21T08:53:18.099Z,13.95
2019-03-21T08:55:46.988Z,15.70
2019-03-21T08:58:16.284Z,14.63
2019-03-21T09:00:45.190Z,19.70
2019-03-21T09:03:13.855Z,12.93
2019-03-21T09:05:43.058Z,16.77
2019-03-21T09:08:11.634Z,12.97
2019-03-21T09:10:40.542Z,16.40
2019-03-21T09:13:09.410Z,12.40
2019-03-21T09:15:38.324Z,10.07
2019-03-21T09:18:06.883Z,12.05
2019-03-21T09:20:35.776Z,12.00
2019-03-21T09:23:05.782Z,10.93
2019-03-21T09:25:34.885Z,10.30
2019-03-21T09:28:03.462Z,12.03
2019-03-21T09:30:32.051Z,14.38
2019-03-21T09:33:00.907Z,16.85
2019-03-21T09:35:29.720Z,12.40
2019-03-21T09:37:58.614Z,12.63
2019-03-21T09:40:27.523Z,16.42
2019-03-21T09:42:56.696Z,16.00
2019-03-21T09:45:25.400Z,13.98
2019-03-21T09:47:54.599Z,16.12
2019-03-21T09:50:30.054Z,16.57
2019-03-21T09:52:58.712Z,13.60
2019-03-21T09:55:27.694Z,15.70
2019-03-21T09:57:56.898Z,13.78
2019-03-21T10:00:34.622Z,15.05
2019-03-21T10:03:03.689Z,18.45
2019-03-21T10:05:32.263Z,13.30
2019-03-21T10:08:01.472Z,12.63
2019-03-21T10:10:33.830Z,13.62
2019-03-21T10:13:02.461Z,14.05
2019-03-21T10:15:31.049Z,13.62
2019-03-21T10:18:00.316Z,19.30
2019-03-21T10:20:29.391Z,16.57
2019-03-21T10:22:57.874Z,16.05
2019-03-21T10:25:27.034Z,18.35
2019-03-21T10:27:56.280Z,15.55
2019-03-21T10:30:29.661Z,14.83
2019-03-21T10:32:58.240Z,14.58
2019-03-21T10:35:26.820Z,14.18
2019-03-21T10:37:56.015Z,15.15
2019-03-21T10:40:24.699Z,14.47
2019-03-21T10:42:53.596Z,15.90
2019-03-21T10:45:22.170Z,13.10
2019-03-21T10:47:50.754Z,16.37
2019-03-21T10:50:24.148Z,14.47
2019-03-21T10:52:52.731Z,13.60
2019-03-21T10:55:21.624Z,12.65
2019-03-21T10:57:50.195Z,13.20
2019-03-21T11:00:34.058Z,11.33
2019-03-21T11:03:03.132Z,12.83
2019-03-21T11:05:31.716Z,12.70
2019-03-21T11:08:00.303Z,13.72
2019-03-21T11:10:29.283Z,11.70
2019-03-21T11:12:58.695Z,14.83
2019-03-21T11:15:27.703Z,12.33
2019-03-21T11:17:57.003Z,12.18
2019-03-21T11:20:27.094Z,12.47
2019-03-21T11:22:55.943Z,15.63
2019-03-21T11:25:24.671Z,11.37
2019-03-21T11:27:53.645Z,11.90
2019-03-21T11:30:35.576Z,15.03
2019-03-21T11:33:04.745Z,14.73
2019-03-21T11:35:33.538Z,14.40
2019-03-21T11:38:02.076Z,12.65
2019-03-21T11:40:31.325Z,13.00
2019-03-21T11:43:01.010Z,17.03
2019-03-21T11:45:29.616Z,11.08
2019-03-21T11:47:59.834Z,11.10
2019-03-21T11:50:28.824Z,12.37
2019-03-21T11:52:58.244Z,13.95
2019-03-21T11:55:26.908Z,13.53
2019-03-21T11:57:56.106Z,11.83
2019-03-21T12:00:27.651Z,13.85
2019-03-21T12:02:57.358Z,12.05
2019-03-21T12:05:25.947Z,13.68
2019-03-21T12:07:54.750Z,11.65
2019-03-21T12:10:23.380Z,13.87
2019-03-21T12:12:52.324Z,11.63
2019-03-21T12:15:20.922Z,11.87
2019-03-21T12:17:49.783Z,13.90
2019-03-21T12:20:31.796Z,13.78
2019-03-21T12:23:00.357Z,12.88
2019-03-21T12:25:29.043Z,14.23
2019-03-21T12:27:58.230Z,14.17
2019-03-21T12:30:34.802Z,11.48
2019-03-21T12:35:31.256Z,13.78
2019-03-21T12:37:59.834Z,17.30
2019-03-21T12:40:28.467Z,14.38
2019-03-21T12:42:56.947Z,15.78
2019-03-21T12:45:25.587Z,16.25
2019-03-21T12:47:54.100Z,13.65
2019-03-21T12:50:22.979Z,15.30
2019-03-21T12:52:51.490Z,13.22
2019-03-21T12:55:20.000Z,16.20
2019-03-21T12:57:48.483Z,15.13
2019-03-21T13:00:28.702Z,12.33
2019-03-21T13:02:57.190Z,16.55
2019-03-21T13:05:27.394Z,12.05
2019-03-21T13:07:55.926Z,14.28
2019-03-21T13:10:24.705Z,12.23
2019-03-21T13:12:53.779Z,14.68
2019-03-21T13:15:29.978Z,11.67
2019-03-21T13:17:52.875Z,12.00
2019-03-21T13:20:23.030Z,12.50
2019-03-21T13:22:53.341Z,14.13
2019-03-21T13:25:21.845Z,11.83
2019-03-21T13:27:50.424Z,14.28
2019-03-21T13:30:19.510Z,11.00
2019-03-21T13:32:48.093Z,11.20
2019-03-21T13:35:17.398Z,13.05
2019-03-21T13:37:46.607Z,13.83
2019-03-21T13:40:15.891Z,12.60
2019-03-21T13:42:44.487Z,12.65
2019-03-21T13:45:13.479Z,12.80
2019-03-21T13:47:42.038Z,10.00
2019-03-21T13:50:10.966Z,9.58
2019-03-21T13:52:39.512Z,12.18
2019-03-21T13:55:09.938Z,9.93
2019-03-21T13:57:38.827Z,9.43
2019-03-21T14:03:03.147Z,7.30
2019-03-21T14:05:31.728Z,8.93
2019-03-21T14:08:00.496Z,8.03
2019-03-21T14:10:32.242Z,7.90
2019-03-21T14:13:00.344Z,6.60
2019-03-21T14:15:29.215Z,5.90
2019-03-21T14:17:58.098Z,8.88
2019-03-21T14:20:26.883Z,6.62
2019-03-21T14:22:55.979Z,6.08
2019-03-21T14:25:24.975Z,10.32
2019-03-21T14:27:54.170Z,9.10
2019-03-21T14:30:22.752Z,5.40
2019-03-21T14:32:51.331Z,3.65
2019-03-21T14:35:20.125Z,4.17
2019-03-21T14:37:48.907Z,4.93
2019-03-21T14:40:19.038Z,3.57
2019-03-21T14:42:48.420Z,5.00
2019-03-21T14:45:18.754Z,4.00
2019-03-21T14:47:47.630Z,4.83
2019-03-21T14:50:16.939Z,2.97
2019-03-21T14:52:46.458Z,3.90
2019-03-21T14:55:15.605Z,3.43
2019-03-21T14:57:44.424Z,4.07
2019-03-21T15:00:27.294Z,3.87
2019-03-21T15:02:56.744Z,3.62
2019-03-21T15:05:25.427Z,3.55
2019-03-21T15:07:54.007Z,2.52
2019-03-21T15:10:22.901Z,4.33
2019-03-21T15:12:51.792Z,4.03
2019-03-21T15:15:20.472Z,6.87
2019-03-21T15:17:49.379Z,7.03
2019-03-21T15:20:17.938Z,7.83
2019-03-21T15:22:46.535Z,6.83
2019-03-21T15:25:15.848Z,6.97
2019-03-21T15:27:44.838Z,6.20
2019-03-21T15:30:15.280Z,7.37
2019-03-21T15:32:44.345Z,6.55
2019-03-21T15:35:13.635Z,8.47
2019-03-21T15:37:42.211Z,7.20
2019-03-21T15:40:12.228Z,7.80
2019-03-21T15:42:41.116Z,7.30
2019-03-21T15:45:22.096Z,7.42
2019-03-21T15:47:41.759Z,6.67
2019-03-21T15:50:11.883Z,11.57
2019-03-21T15:52:40.464Z,9.65
2019-03-21T15:55:09.559Z,5.96
2019-03-21T15:57:38.444Z,7.77
2019-03-21T16:00:09.339Z,7.35
2019-03-21T16:02:38.683Z,11.93
2019-03-21T16:05:07.672Z,7.93
2019-03-21T16:07:36.275Z,10.68
2019-03-21T16:10:06.585Z,10.58
2019-03-21T16:12:35.468Z,10.82
2019-03-21T16:15:06.310Z,9.08
2019-03-21T16:17:35.191Z,8.00
2019-03-21T16:20:17.178Z,11.87
2019-03-21T16:22:43.529Z,8.53
2019-03-21T16:25:17.469Z,7.97
2019-03-21T16:27:55.640Z,8.40
2019-03-21T16:30:28.359Z,7.77
2019-03-21T16:32:59.386Z,7.90
2019-03-21T16:35:31.537Z,9.40
2019-03-21T16:38:00.111Z,8.33
2019-03-21T16:40:32.111Z,7.43
2019-03-21T16:43:05.308Z,8.43
2019-03-21T16:45:32.602Z,7.30
2019-03-21T16:48:01.688Z,9.65
2019-03-21T16:50:30.582Z,7.73
2019-03-21T16:53:00.699Z,7.97
2019-03-21T16:55:30.879Z,7.63
2019-03-21T16:58:00.963Z,7.70
2019-03-21T17:00:33.279Z,7.37
2019-03-21T17:03:10.943Z,7.78
2019-03-21T17:05:39.817Z,10.15
2019-03-21T17:08:11.587Z,8.15
2019-03-21T17:10:40.050Z,8.68
2019-03-21T17:13:08.953Z,7.60
2019-03-21T17:15:41.214Z,9.20
2019-03-21T17:18:15.098Z,8.53
2019-03-21T17:20:46.848Z,8.50
2019-03-21T17:23:20.628Z,9.78
2019-03-21T17:25:50.265Z,8.55
2019-03-21T17:28:19.498Z,9.55
2019-03-21T17:30:48.657Z,11.00
2019-03-21T17:33:17.728Z,10.77
2019-03-21T17:35:46.704Z,10.90
2019-03-21T17:38:18.895Z,11.60
2019-03-21T17:40:48.018Z,16.30
2019-03-21T17:43:16.699Z,15.00
2019-03-21T17:45:45.217Z,12.88
2019-03-21T17:48:14.091Z,16.30
2019-03-21T17:50:43.552Z,13.80
2019-03-21T17:53:12.446Z,16.73
2019-03-21T17:55:41.539Z,21.23
2019-03-21T17:58:10.641Z,20.00
2019-03-21T18:00:39.221Z,19.75
2019-03-21T18:03:08.510Z,19.97
2019-03-21T18:05:39.959Z,20.00
2019-03-21T18:08:08.543Z,21.85
2019-03-21T18:10:37.431Z,22.97
2019-03-21T18:13:07.445Z,18.42
2019-03-21T18:15:37.671Z,19.92
2019-03-21T18:18:06.411Z,24.52
2019-03-21T18:20:35.258Z,22.87
2019-03-21T18:23:08.391Z,23.03
2019-03-21T18:25:40.500Z,21.77
2019-03-21T18:28:12.630Z,18.48
2019-03-21T18:30:44.450Z,19.23
2019-03-21T18:33:16.028Z,15.57
2019-03-21T18:35:48.001Z,15.37
2019-03-21T18:38:26.839Z,15.40
2019-03-21T18:40:58.231Z,16.25
2019-03-21T18:43:30.835Z,15.00
2019-03-21T18:46:03.089Z,14.57
2019-03-21T18:48:35.528Z,18.37
2019-03-21T18:51:08.570Z,21.80
2019-03-21T18:53:39.692Z,20.57
2019-03-21T18:56:11.566Z,21.95
2019-03-21T18:58:42.834Z,22.82
2019-03-21T19:01:14.220Z,21.37
2019-03-21T19:03:47.380Z,19.62
2019-03-21T19:06:18.851Z,19.63
2019-03-21T19:08:50.565Z,22.65
2019-03-21T19:11:22.177Z,24.50
2019-03-21T19:13:58.633Z,22.90
2019-03-21T19:16:32.869Z,23.63
2019-03-21T19:19:06.962Z,21.40
2019-03-21T19:21:41.310Z,56.42
2019-03-21T19:24:15.989Z,19.03
2019-03-21T19:26:49.491Z,17.17
2019-03-21T19:29:24.952Z,15.13
2019-03-21T19:32:01.735Z,20.12
2019-03-21T19:34:35.021Z,20.00
2019-03-21T19:37:10.368Z,22.38
2019-03-21T19:39:47.088Z,24.15
2019-03-21T19:42:22.861Z,21.57
2019-03-21T19:44:58.051Z,30.00
2019-03-21T19:47:33.472Z,31.70
2019-03-21T19:50:07.913Z,33.60
2019-03-21T19:52:39.980Z,60.67
2019-03-21T19:55:14.307Z,53.20
2019-03-21T19:57:46.498Z,52.70
2019-03-21T20:00:25.592Z,51.33
2019-03-21T20:02:59.856Z,52.17
2019-03-21T20:05:33.897Z,52.53
2019-03-21T20:08:10.906Z,55.04
2019-03-21T20:10:47.427Z,63.28
2019-03-21T20:13:24.985Z,60.65
2019-03-21T20:16:00.373Z,58.95
2019-03-21T20:18:38.668Z,64.07
2019-03-21T20:21:12.498Z,63.77
2019-03-21T20:23:48.358Z,64.22
2019-03-21T20:28:58.493Z,65.12
2019-03-21T20:31:34.787Z,64.17
2019-03-21T20:34:12.781Z,70.05
2019-03-21T20:36:47.631Z,63.83
2019-03-21T20:39:23.273Z,71.77
2019-03-21T20:41:57.837Z,71.07
2019-03-21T20:44:32.499Z,69.72
2019-03-21T20:47:06.546Z,68.90
2019-03-21T20:49:41.534Z,69.17
2019-03-21T20:52:16.630Z,72.53
2019-03-21T20:54:52.535Z,67.67
2019-03-21T20:57:27.824Z,70.67
2019-03-21T21:00:03.840Z,69.53
2019-03-21T21:02:39.758Z,64.90
2019-03-21T21:05:14.650Z,59.53
2019-03-21T21:07:52.928Z,63.73
2019-03-21T21:10:28.103Z,67.07
2019-03-21T21:13:02.946Z,62.87
2019-03-21T21:15:38.433Z,70.90
2019-03-21T21:18:12.826Z,61.45
2019-03-21T21:20:49.027Z,58.90
2019-03-21T21:23:23.543Z,53.55
2019-03-21T21:26:05.400Z,55.17
2019-03-21T21:28:34.830Z,50.10
2019-03-21T21:31:11.858Z,53.10
2019-03-21T21:33:46.503Z,49.33
2019-03-21T21:36:22.164Z,48.83
2019-03-21T21:38:56.292Z,39.23
2019-03-21T21:41:31.445Z,35.43
2019-03-21T21:44:05.296Z,26.17
2019-03-21T21:46:38.100Z,26.12
2019-03-21T21:49:12.985Z,26.93
2019-03-21T21:51:46.056Z,24.80
2019-03-21T21:54:20.436Z,27.80
2019-03-21T21:56:55.371Z,27.73
2019-03-21T21:59:29.183Z,25.40
2019-03-21T22:02:04.270Z,27.80
2019-03-21T22:04:38.452Z,31.27
2019-03-21T22:07:12.925Z,30.35
2019-03-21T22:09:47.516Z,28.92
2019-03-21T22:12:22.682Z,31.27
2019-03-21T22:14:56.866Z,33.42
2019-03-21T22:17:31.980Z,35.17
2019-03-21T22:20:06.817Z,58.97
2019-03-21T22:22:43.115Z,53.02
2019-03-21T22:25:18.858Z,123.80
2019-03-21T22:27:54.799Z,90.67
2019-03-21T22:30:28.943Z,35.27
2019-03-21T22:33:03.842Z,98.82
2019-03-21T22:35:37.994Z,71.43
2019-03-21T22:38:12.361Z,70.17
2019-03-21T22:40:47.190Z,75.07
2019-03-21T22:43:22.952Z,40.90
2019-03-21T22:45:56.990Z,41.90
2019-03-21T22:48:31.331Z,36.23
2019-03-21T22:51:05.712Z,54.25
2019-03-21T22:53:40.428Z,43.35
2019-03-21T22:56:14.524Z,38.20
2019-03-21T22:58:50.312Z,28.67
2019-03-21T23:01:24.713Z,29.40
2019-03-21T23:04:02.655Z,24.07
2019-03-21T23:06:36.184Z,22.40
2019-03-21T23:09:11.718Z,22.80
2019-03-21T23:11:46.681Z,24.37
2019-03-21T23:14:22.012Z,23.52
2019-03-21T23:16:56.252Z,24.90
2019-03-21T23:19:31.431Z,23.75
2019-03-21T23:22:06.157Z,25.72
2019-03-21T23:24:41.741Z,22.73
2019-03-21T23:27:16.333Z,26.77
2019-03-21T23:29:51.437Z,21.50
2019-03-21T23:32:25.979Z,31.68
2019-03-21T23:35:01.098Z,40.40
2019-03-21T23:37:36.188Z,39.03
2019-03-21T23:40:12.693Z,33.63
2019-03-21T23:42:48.657Z,30.80
2019-03-21T23:45:24.740Z,35.70
2019-03-21T23:48:00.289Z,29.27
2019-03-21T23:50:36.672Z,25.25
2019-03-21T23:53:11.699Z,27.27
2019-03-21T23:55:47.185Z,26.63
2019-03-21T23:58:23.063Z,25.20
